aviador You're here:

ZSHC Decoded Metar

HANGZHOU in CHINA
Report Time2018-01-19 17:00:00
UTC Time2018-01-19 17:15:46
Flight Rules ifr IFR
Wind070° at 4 kt
W.Decomp.*RWY 07: 4.0 kt HW 0.3 kt RCW
W.Rank070° ranks 3
Current wind is below 070° avg. (6.3)
Visibility2000 m
Phenomena:Mist
Clouds:Broken 009 Hf
Broken 020 Hf
Expected CloudBase > 400 ft AGL from Temp-Dew spread
Ceiling900 ft
Temp08°C (ISA -7)
Dew Point07°C (93% RH)
AAT5.8°C
QNH1023 hPa
Density Alt-869 ft
Elevation141 ft
Report Wrong Elevation
Raw Report
ZSHC 191700Z 07002MPS 2000 BR BKN009 BKN020 08/07 Q1023 NOSIG=

Extra information for ZSHC:More info

Metar Taf Metar & Taf Last 4 Metars F.Rules Stats Wind Profile Meteogram Temp Stats Airport Information Weather charts Add Link Nearby VenuesMetar ALERT Operation Metar Decoded Social comments